createdAt,value
2022-12-05T00:00:36.699Z,5.46
2022-12-05T00:04:41.203Z,5.42
2022-12-05T00:08:45.127Z,5.31
2022-12-05T00:12:48.801Z,5.27
2022-12-05T00:16:51.934Z,5.25
2022-12-05T00:20:56.898Z,5.17
2022-12-05T00:25:00.472Z,5.20
2022-12-05T00:29:03.607Z,5.26
2022-12-05T00:33:07.440Z,5.32
2022-12-05T00:37:12.494Z,5.40
2022-12-05T00:41:17.984Z,5.52
2022-12-05T00:45:21.543Z,5.64
2022-12-05T00:49:24.668Z,5.76
2022-12-05T00:53:29.586Z,5.89
2022-12-05T00:57:34.013Z,6.00
2022-12-05T01:01:39.734Z,6.11
2022-12-05T01:05:43.282Z,6.21
2022-12-05T01:09:48.514Z,6.28
2022-12-05T01:13:51.943Z,6.38
2022-12-05T01:17:55.599Z,6.47
2022-12-05T01:22:00.216Z,6.52
2022-12-05T01:26:07.970Z,6.62
2022-12-05T01:30:11.799Z,6.62
2022-12-05T01:34:17.804Z,6.70
2022-12-05T01:38:21.211Z,6.77
2022-12-05T01:42:26.685Z,6.82
2022-12-05T01:46:32.759Z,6.79
2022-12-05T01:50:36.742Z,6.80
2022-12-05T01:54:40.671Z,6.76
2022-12-05T01:58:47.554Z,6.67
2022-12-05T02:02:54.056Z,6.59
2022-12-05T02:06:57.723Z,6.53
2022-12-05T02:11:01.112Z,6.44
2022-12-05T02:15:23.593Z,6.35
2022-12-05T02:19:59.306Z,6.24
2022-12-05T02:24:27.204Z,6.10
2022-12-05T02:29:00.556Z,5.96
2022-12-05T02:33:14.601Z,5.82
2022-12-05T02:37:24.714Z,5.74
2022-12-05T02:41:34.045Z,5.71
2022-12-05T02:45:41.482Z,5.72
2022-12-05T02:49:46.802Z,5.78
2022-12-05T02:53:52.108Z,5.86
2022-12-05T02:58:00.444Z,5.96
2022-12-05T03:02:03.997Z,6.07
2022-12-05T03:06:15.449Z,6.18
2022-12-05T03:10:23.226Z,6.28
2022-12-05T03:14:30.262Z,6.39
2022-12-05T03:18:39.293Z,6.49
2022-12-05T03:22:48.423Z,6.58
2022-12-05T03:27:03.300Z,6.65
2022-12-05T03:31:12.618Z,6.71
2022-12-05T03:35:24.957Z,6.75
2022-12-05T03:39:34.527Z,6.79
2022-12-05T03:43:46.176Z,6.82
2022-12-05T03:47:52.904Z,6.84
2022-12-05T03:52:02.112Z,6.88
2022-12-05T03:56:12.302Z,6.91
2022-12-05T04:00:19.581Z,6.92
2022-12-05T04:04:27.554Z,6.93
2022-12-05T04:08:35.137Z,6.93
2022-12-05T04:12:43.352Z,6.92
2022-12-05T04:17:04.978Z,6.92
2022-12-05T04:21:26.260Z,6.90
2022-12-05T04:25:38.547Z,6.90
2022-12-05T04:29:52.459Z,6.87
2022-12-05T04:34:00.352Z,6.89
2022-12-05T04:38:08.577Z,6.88
2022-12-05T04:42:16.316Z,6.86
2022-12-05T04:46:24.157Z,6.86
2022-12-05T04:50:31.382Z,6.83
2022-12-05T04:54:39.618Z,6.78
2022-12-05T04:58:43.273Z,6.79
2022-12-05T05:02:52.277Z,6.80
2022-12-05T05:06:55.893Z,6.78
2022-12-05T05:11:14.518Z,6.78
2022-12-05T05:15:18.232Z,6.75
2022-12-05T05:19:23.285Z,6.77
2022-12-05T05:23:29.709Z,6.74
2022-12-05T05:27:32.663Z,6.72
2022-12-05T05:31:36.833Z,6.75
2022-12-05T05:35:41.697Z,6.76
2022-12-05T05:39:45.489Z,6.75
2022-12-05T05:43:49.394Z,6.77
2022-12-05T05:47:52.500Z,6.79
2022-12-05T05:51:57.431Z,6.81
2022-12-05T05:56:04.743Z,6.83
2022-12-05T06:00:09.832Z,6.86
2022-12-05T06:04:12.830Z,6.87
2022-12-05T06:08:17.758Z,6.91
2022-12-05T06:12:21.382Z,6.93
2022-12-05T06:16:25.800Z,6.95
2022-12-05T06:20:29.420Z,6.97
2022-12-05T06:24:34.012Z,7.00
2022-12-05T06:28:37.795Z,7.02
2022-12-05T06:32:42.065Z,7.02
2022-12-05T06:36:46.324Z,7.04
2022-12-05T06:40:50.700Z,7.06
2022-12-05T06:44:54.313Z,7.06
2022-12-05T06:48:58.980Z,7.08
2022-12-05T06:53:02.824Z,7.10
2022-12-05T06:57:07.805Z,7.13
2022-12-05T07:01:31.345Z,7.15
2022-12-05T07:05:35.464Z,7.18
2022-12-05T07:09:49.060Z,7.22
2022-12-05T07:13:54.265Z,7.25
2022-12-05T07:17:57.459Z,7.27
2022-12-05T07:22:00.525Z,7.29
2022-12-05T07:26:07.917Z,7.31
2022-12-05T07:30:13.156Z,7.35
2022-12-05T07:34:16.830Z,7.37
2022-12-05T07:38:19.958Z,7.40
2022-12-05T07:42:23.584Z,7.42
2022-12-05T07:46:30.270Z,7.44
2022-12-05T07:50:33.923Z,7.44
2022-12-05T07:54:37.149Z,7.47
2022-12-05T07:58:40.788Z,7.48
2022-12-05T08:02:46.140Z,7.47
2022-12-05T08:06:49.506Z,7.46
2022-12-05T08:10:53.431Z,7.47
2022-12-05T08:14:57.365Z,7.44
2022-12-05T08:19:04.012Z,7.43
2022-12-05T08:23:07.579Z,7.43
2022-12-05T08:27:10.858Z,7.43
2022-12-05T08:31:16.529Z,7.44
2022-12-05T08:35:21.534Z,7.44
2022-12-05T08:39:24.851Z,7.44
2022-12-05T08:43:28.404Z,7.43
2022-12-05T08:47:32.589Z,7.45
2022-12-05T08:51:37.882Z,7.47
2022-12-05T08:55:41.619Z,7.47
2022-12-05T08:59:47.230Z,7.51
2022-12-05T09:03:50.947Z,7.53
2022-12-05T09:07:55.835Z,7.55
2022-12-05T09:12:00.878Z,7.60
2022-12-05T09:16:09.040Z,7.65
2022-12-05T09:20:14.523Z,7.66
2022-12-05T09:24:19.225Z,7.74
2022-12-05T09:28:24.154Z,7.78
2022-12-05T09:32:28.297Z,7.80
2022-12-05T09:36:33.597Z,7.81
2022-12-05T09:40:43.608Z,7.84
2022-12-05T09:45:00.906Z,7.84
2022-12-05T09:49:05.871Z,7.87
2022-12-05T09:53:16.405Z,7.92
2022-12-05T09:57:33.859Z,7.97
2022-12-05T10:01:43.184Z,8.02
2022-12-05T10:05:52.063Z,8.07
2022-12-05T10:10:04.782Z,8.07
2022-12-05T10:14:25.119Z,8.06
2022-12-05T10:18:38.851Z,8.00
2022-12-05T10:22:49.319Z,7.96
2022-12-05T10:26:57.381Z,7.93
2022-12-05T10:31:07.238Z,7.89
2022-12-05T10:35:18.877Z,7.87
2022-12-05T10:39:22.696Z,7.84
2022-12-05T10:43:29.447Z,7.82
2022-12-05T10:47:35.058Z,7.84
2022-12-05T10:51:39.368Z,7.85
2022-12-05T10:56:06.371Z,7.86
2022-12-05T11:00:15.929Z,7.88
2022-12-05T11:04:28.201Z,7.89
2022-12-05T11:09:02.969Z,7.91
2022-12-05T11:12:59.339Z,7.93
2022-12-05T11:17:04.948Z,7.99
2022-12-05T11:21:14.532Z,8.06
2022-12-05T11:25:26.544Z,8.13
2022-12-05T11:29:37.032Z,8.20
2022-12-05T11:33:41.428Z,8.23
2022-12-05T11:37:53.925Z,8.26
2022-12-05T11:46:58.420Z,8.32
2022-12-05T11:51:18.170Z,8.39
2022-12-05T11:55:28.852Z,8.47
2022-12-05T11:59:55.288Z,8.58
2022-12-05T12:04:26.056Z,8.71
2022-12-05T12:08:31.631Z,8.82
2022-12-05T12:12:48.956Z,8.92
2022-12-05T12:17:04.424Z,8.97
2022-12-05T12:21:19.862Z,8.99
2022-12-05T12:25:35.248Z,9.00
2022-12-05T12:30:01.974Z,8.98
2022-12-05T12:34:21.224Z,9.00
2022-12-05T12:38:46.879Z,8.99
2022-12-05T12:43:07.311Z,8.99
2022-12-05T12:47:19.967Z,8.98
2022-12-05T12:51:23.040Z,8.95
2022-12-05T12:55:33.433Z,8.93
2022-12-05T12:59:59.077Z,8.89
2022-12-05T13:04:13.158Z,8.84
2022-12-05T13:08:25.442Z,8.78
2022-12-05T13:12:31.620Z,8.72
2022-12-05T13:16:45.864Z,8.65
2022-12-05T13:20:54.431Z,8.57
2022-12-05T13:25:05.977Z,8.50
2022-12-05T13:29:22.769Z,8.41
2022-12-05T13:33:28.837Z,8.32
2022-12-05T13:37:51.564Z,8.22
2022-12-05T13:42:16.586Z,8.13
2022-12-05T13:46:27.840Z,8.05
2022-12-05T13:50:37.675Z,7.97
2022-12-05T13:54:47.875Z,7.90
2022-12-05T13:58:52.725Z,7.84
2022-12-05T14:02:59.094Z,7.79
2022-12-05T14:07:03.077Z,7.74
2022-12-05T14:11:13.103Z,7.73
2022-12-05T14:15:43.451Z,7.72
2022-12-05T14:20:01.867Z,7.69
2022-12-05T14:24:12.779Z,7.67
2022-12-05T14:28:38.150Z,7.65
2022-12-05T14:32:44.639Z,7.62
2022-12-05T14:37:06.663Z,7.59
2022-12-05T14:41:17.244Z,7.57
2022-12-05T14:45:30.545Z,7.54
2022-12-05T14:49:55.406Z,7.52
2022-12-05T14:54:04.566Z,7.50
2022-12-05T14:58:18.123Z,7.50
2022-12-05T15:02:28.896Z,7.48
2022-12-05T15:06:35.227Z,7.46
2022-12-05T15:10:41.834Z,7.45
2022-12-05T15:14:51.793Z,7.45
2022-12-05T15:19:00.296Z,7.44
2022-12-05T15:23:04.073Z,7.45
2022-12-05T15:27:11.764Z,7.45
2022-12-05T15:31:15.987Z,7.44
2022-12-05T15:35:24.053Z,7.43
2022-12-05T15:39:28.791Z,7.43
2022-12-05T15:43:33.865Z,7.42
2022-12-05T15:47:37.375Z,7.40
2022-12-05T15:51:42.523Z,7.36
2022-12-05T15:55:50.587Z,7.37
2022-12-05T15:59:58.342Z,7.37
2022-12-05T16:04:06.868Z,7.35
2022-12-05T16:08:11.476Z,7.34
2022-12-05T16:12:24.852Z,7.31
2022-12-05T16:16:32.628Z,7.30
2022-12-05T16:20:37.735Z,7.30
2022-12-05T16:24:46.448Z,7.29
2022-12-05T16:29:00.790Z,7.28
2022-12-05T16:33:07.418Z,7.27
2022-12-05T16:37:20.327Z,7.25
2022-12-05T16:41:37.332Z,7.24
2022-12-05T16:45:42.270Z,7.24
2022-12-05T16:49:47.258Z,7.21
2022-12-05T16:53:52.661Z,7.21
2022-12-05T16:57:57.611Z,7.21
2022-12-05T17:02:02.528Z,7.20
2022-12-05T17:06:07.618Z,7.18
2022-12-05T17:10:11.482Z,7.18
2022-12-05T17:14:19.120Z,7.18
2022-12-05T17:18:29.605Z,7.15
2022-12-05T17:22:35.003Z,7.14
2022-12-05T17:26:38.045Z,7.15
2022-12-05T17:30:43.302Z,7.14
2022-12-05T17:34:46.855Z,7.13
2022-12-05T17:38:50.928Z,7.11
2022-12-05T17:42:54.572Z,7.11
2022-12-05T17:47:04.475Z,7.11
2022-12-05T17:51:13.660Z,7.11
2022-12-05T17:55:20.560Z,7.09
2022-12-05T17:59:23.630Z,7.08
2022-12-05T18:03:28.821Z,7.06
2022-12-05T18:07:32.795Z,7.03
2022-12-05T18:11:36.767Z,7.00
2022-12-05T18:20:06.615Z,6.87
2022-12-05T18:24:10.217Z,6.77
2022-12-05T18:28:17.826Z,6.67
2022-12-05T18:32:26.871Z,6.55
2022-12-05T18:36:32.562Z,6.41
2022-12-05T18:40:41.159Z,6.27
2022-12-05T18:44:47.621Z,6.10
2022-12-05T18:48:53.341Z,5.96
2022-12-05T18:52:58.607Z,5.84
2022-12-05T18:57:02.191Z,5.72
2022-12-05T19:01:08.246Z,5.62
2022-12-05T19:05:12.403Z,5.51
2022-12-05T19:09:24.611Z,5.45
2022-12-05T19:13:30.334Z,5.38
2022-12-05T19:22:02.758Z,5.27
2022-12-05T19:26:10.284Z,5.27
2022-12-05T19:30:16.491Z,5.24
2022-12-05T19:34:20.294Z,5.19
2022-12-05T19:38:24.188Z,5.15
2022-12-05T19:42:29.686Z,5.13
2022-12-05T19:46:35.170Z,5.11
2022-12-05T19:50:38.830Z,5.11
2022-12-05T19:54:42.332Z,5.12
2022-12-05T19:58:48.516Z,5.15
2022-12-05T20:02:51.616Z,5.16
2022-12-05T20:06:55.354Z,5.18
2022-12-05T20:10:58.712Z,5.14
2022-12-05T20:15:04.303Z,5.16
2022-12-05T20:19:16.676Z,5.16
2022-12-05T20:23:21.175Z,5.14
2022-12-05T20:27:25.877Z,5.13
2022-12-05T20:31:37.460Z,5.12
2022-12-05T20:35:42.198Z,5.09
2022-12-05T20:39:46.525Z,5.04
2022-12-05T20:43:55.913Z,5.01
